SBNT

Augusto Severo Airport

Natal, Brazil
TAF SBNT 192200Z 2000/2024 14009KT 8000 SCT020 TN23/2008Z TX31/2016Z PROB30 TEMPO 2002/2004 5000 SHRA SCT012 BKN017 PROB40 TEMPO 2008/2010 4000 RA SCT012 BKN017 BECMG 2011/2012 12019KT BKN020 BECMG 2014/2015 SCT023 BECMG 2021/2022 13011KT RMK PEI
Issued Valid From Valid To
Sep-19 @ 22:00 UTC
(3 hours ago)
Sep-20 @ 00:00 UTC
(41 minutes ago)
Sep-21 @ 00:00 UTC
(in 23 hours)
Sep-20 @ 00:00 to Sep-20 @ 11:00
TAF SBNT 192200Z 2000/2024 14009KT 8000 SCT020 TN23/2008Z TX31/2016Z
Wind Visibility Clouds
140° at 9 knots 7,998 meters
  • Scattered at 2,000' AGL
Temporary  (Probability 30%) Sep-20 @ 02:00 to Sep-20 @ 04:00
PROB30 TEMPO 2002/2004 5000 SHRA SCT012 BKN017
Visibility Clouds Conditions
5,005 meters
  • Scattered at 1,200' AGL
  • Broken at 1,700' AGL
  • Rain
Temporary  (Probability 40%) Sep-20 @ 08:00 to Sep-20 @ 10:00
PROB40 TEMPO 2008/2010 4000 RA SCT012 BKN017
Visibility Clouds Conditions
4,007 meters
  • Scattered at 1,200' AGL
  • Broken at 1,700' AGL
  • Rain
Becoming Sep-20 @ 11:00 to Sep-20 @ 14:00
BECMG 2011/2012 12019KT BKN020
Wind Visibility Clouds
120° at 19 knots 7,998 meters
  • Broken at 2,000' AGL
Becoming Sep-20 @ 14:00 to Sep-20 @ 21:00
BECMG 2014/2015 SCT023
Wind Visibility Clouds
120° at 19 knots 7,998 meters
  • Scattered at 2,300' AGL
Becoming Sep-20 @ 21:00 to Sep-21 @ 00:00
BECMG 2021/2022 13011KT RMK PEI
Wind Visibility Clouds
130° at 11 knots 7,998 meters
  • Scattered at 2,300' AGL
TAF SBNT 192200Z 2000/2024 14009KT 8000 SCT020 TN23/2008Z TX31/2016Z PROB30 TEMPO 2002/2004 5000 SHRA SCT012 BKN017 PROB40 TEMPO 2008/2010 4000 RA SCT012 BKN017 BECMG 2011/2012 12019KT BKN020 BECMG 2014/2015 SCT023 BECMG 2021/2022 13011KT RMK PEI
Issued Sep-19 @ 22:00 UTC
(3 hours ago)
Valid From Sep-20 @ 00:00 UTC
(41 minutes ago)
Valid To Sep-21 @ 00:00 UTC
(in 23 hours)
Sep-20 @ 00:00 - Sep-20 @ 11:00
Wind Visibility
140° at 9 knots 7,998 meters
Clouds
  • Scattered at 2,000' AGL
Probability 30% Temporary Sep-20 @ 02:00 - Sep-20 @ 04:00
Clouds
  • Scattered at 1,200' AGL
  • Broken at 1,700' AGL
Conditions
  • Rain
Probability 40% Temporary Sep-20 @ 08:00 - Sep-20 @ 10:00
Clouds
  • Scattered at 1,200' AGL
  • Broken at 1,700' AGL
Conditions
  • Rain
Becoming Sep-20 @ 11:00 - Sep-20 @ 14:00
Wind Visibility
120° at 19 knots 7,998 meters
Clouds
  • Broken at 2,000' AGL
Becoming Sep-20 @ 14:00 - Sep-20 @ 21:00
Wind Visibility
120° at 19 knots 7,998 meters
Clouds
  • Scattered at 2,300' AGL
Becoming Sep-20 @ 21:00 - Sep-21 @ 00:00
Wind Visibility
130° at 11 knots 7,998 meters
Clouds
  • Scattered at 2,300' AGL